»·PEaware :: NKS1185 KBUR-KLAS

NKS1185 :: KBUR-KLAS

FLIGHT INFORMATION

Flight Status: Arrived
Operator:
Spirit Airlines
More flights by this operator :: More flights under this callsign
Pilot: Tyler C. (3191)
Aircraft: AIRBUS A320
(A320)
More flights by this aircraft type
Origin: KBUR Bob Hope-Burbank
United States
Destination: KLAS McCarran Intl
United States
More flights between these airports :: More routes between these airports
Route: SLAPP1 MISEN KEPEC6
File this flight plan on PilotEdge
Remarks: NONE
Altitude:
(Current/Filed)
25,000ft
Speed:
(Current/Filed)
515kts
Departed: 01-Oct-18 08:12 PM
Arrived: 01-Oct-18 09:02 PM
Distance/Time
Traveled:
193nm/0:49
Distance/Time
To Go:
Arrived

Flight Plot

Page will automatically refresh every two minutes.

Flight plan parsing failed; only flown route is shown


Map Options




Map Legend


Flown Route
Filed Route
Departure Airport
Arrival Airport
Navaid (VOR, NDB)
Fix

Horizontal Profiles

Position Reports

Time Latitude Longitude Heading Altitude Ground
Speed
01-Oct-18 19:57 34.196781 -118.352374 180 786ft 0kts
01-Oct-18 19:58 34.196781 -118.352374 180 786ft 0kts
01-Oct-18 19:59 34.196781 -118.352374 180 786ft 0kts
01-Oct-18 20:00 34.196781 -118.352374 180 786ft 0kts
01-Oct-18 20:01 34.196781 -118.352374 180 786ft 0kts
01-Oct-18 20:02 34.196781 -118.352374 180 786ft 0kts
01-Oct-18 20:03 34.196781 -118.352374 180 786ft 0kts
01-Oct-18 20:04 34.196782 -118.352374 180 786ft 0kts
01-Oct-18 20:05 34.196782 -118.352374 180 786ft 0kts
01-Oct-18 20:06 34.196782 -118.352374 180 786ft 0kts
01-Oct-18 20:07 34.197144 -118.352108 245 786ft 2kts
01-Oct-18 20:08 34.197178 -118.351784 271 786ft 0kts
01-Oct-18 20:09 34.197178 -118.351784 272 786ft 0kts
01-Oct-18 20:10 34.197192 -118.352334 271 786ft 9kts
01-Oct-18 20:11 34.199812 -118.355644 347 786ft 24kts
01-Oct-18 20:12 34.207721 -118.357828 347 786ft 28kts
01-Oct-18 20:13 34.211218 -118.360155 165 786ft 11kts
01-Oct-18 20:14 34.188302 -118.353782 168 1374ft 171kts
01-Oct-18 20:15 34.141102 -118.376346 222 3898ft 231kts
01-Oct-18 20:16 34.141421 -118.451837 323 5225ft 279kts
01-Oct-18 20:17 34.210236 -118.495013 333 6605ft 284kts
01-Oct-18 20:18 34.282001 -118.536935 345 8272ft 293kts
01-Oct-18 20:19 34.348414 -118.494040 50 10019ft 298kts
01-Oct-18 20:20 34.406655 -118.412243 49 11790ft 348kts
01-Oct-18 20:21 34.474639 -118.320767 41 13552ft 382kts
01-Oct-18 20:22 34.559022 -118.236538 40 15314ft 404kts
01-Oct-18 20:23 34.645775 -118.147814 49 17080ft 415kts
01-Oct-18 20:24 34.683416 -118.019870 80 18805ft 416kts
01-Oct-18 20:25 34.697191 -117.879065 88 20153ft 430kts
01-Oct-18 20:26 34.705210 -117.739486 89 20635ft 457kts
01-Oct-18 20:27 34.711357 -117.582648 89 21408ft 471kts
01-Oct-18 20:28 34.736317 -117.425053 74 22335ft 485kts
01-Oct-18 20:29 34.777354 -117.270905 75 23168ft 491kts
01-Oct-18 20:30 34.818923 -117.113428 75 23911ft 497kts
01-Oct-18 20:31 34.854107 -116.979397 75 24651ft 497kts
01-Oct-18 20:32 34.902376 -116.794489 76 24934ft 491kts
01-Oct-18 20:33 34.952398 -116.669682 58 24473ft 503kts
01-Oct-18 20:34 35.044370 -116.507038 59 23961ft 501kts
01-Oct-18 20:35 35.111834 -116.392539 51 23916ft 502kts
01-Oct-18 20:36 35.204528 -116.276010 49 21594ft 485kts
01-Oct-18 20:37 35.295682 -116.161524 48 19512ft 465kts
01-Oct-18 20:38 35.383915 -116.050286 48 17444ft 448kts
01-Oct-18 20:39 35.469063 -115.942588 48 15468ft 433kts
01-Oct-18 20:40 35.549843 -115.840172 48 14123ft 384kts
01-Oct-18 20:41 35.614760 -115.757801 48 13518ft 297kts
01-Oct-18 20:42 35.670431 -115.686616 48 13103ft 291kts
01-Oct-18 20:43 35.729377 -115.611087 48 13051ft 310kts
01-Oct-18 20:44 35.806239 -115.572410 3 13048ft 318kts
01-Oct-18 20:45 35.894601 -115.567779 3 13035ft 319kts
01-Oct-18 20:46 35.976412 -115.540928 56 12855ft 309kts
01-Oct-18 20:47 36.008610 -115.445593 70 11437ft 298kts
01-Oct-18 20:48 36.029558 -115.354183 96 10770ft 264kts
01-Oct-18 20:49 36.023218 -115.267053 96 9764ft 259kts
01-Oct-18 20:50 36.016926 -115.179426 96 8751ft 255kts
01-Oct-18 20:51 36.011197 -115.094334 97 8090ft 243kts
01-Oct-18 20:52 36.006014 -115.009760 96 8035ft 247kts
01-Oct-18 20:53 36.001450 -114.931943 96 8026ft 214kts
01-Oct-18 20:54 35.996677 -114.858437 97 8026ft 214kts
01-Oct-18 20:55 35.991895 -114.786545 97 6642ft 211kts
01-Oct-18 20:56 36.031343 -114.749521 352 5073ft 219kts
01-Oct-18 20:57 36.087804 -114.771050 298 5026ft 217kts
01-Oct-18 20:58 36.088051 -114.839837 262 5019ft 199kts
01-Oct-18 20:59 36.083346 -114.907818 262 5016ft 200kts
01-Oct-18 21:00 36.079090 -114.973301 261 4942ft 184kts
01-Oct-18 21:01 36.073822 -115.035719 263 3557ft 183kts
01-Oct-18 21:02 36.073639 -115.091640 268 2711ft 164kts
01-Oct-18 21:03 36.073612 -115.143796 269 2150ft 98kts
01-Oct-18 21:04 36.075451 -115.156395 317 2150ft 0kts
01-Oct-18 21:05 36.076822 -115.157952 321 2150ft 18kts

Navigation Log

Ident Type
Flight plan parsing failed, navigation log unavailable